sensor_id;sensor_type;location;lat;lon;timestamp;pressure;altitude;pressure_sealevel;temperature;humidity
32251;BME280;41295;48.518;9.206;2022-12-24T00:00:58;96707.22;;;11.06;75.48
32251;BME280;41295;48.518;9.206;2022-12-24T00:03:00;96705.44;;;11.07;75.80
32251;BME280;41295;48.518;9.206;2022-12-24T00:05:04;96714.88;;;11.10;75.54
32251;BME280;41295;48.518;9.206;2022-12-24T00:07:07;96715.66;;;11.12;75.74
32251;BME280;41295;48.518;9.206;2022-12-24T00:09:11;96710.50;;;11.10;75.61
32251;BME280;41295;48.518;9.206;2022-12-24T00:11:13;96713.81;;;11.14;75.91
32251;BME280;41295;48.518;9.206;2022-12-24T00:13:16;96718.72;;;11.02;76.52
32251;BME280;41295;48.518;9.206;2022-12-24T00:15:19;96715.13;;;11.05;75.54
32251;BME280;41295;48.518;9.206;2022-12-24T00:17:21;96716.13;;;11.02;75.89
32251;BME280;41295;48.518;9.206;2022-12-24T00:19:24;96703.59;;;10.91;76.21
32251;BME280;41295;48.518;9.206;2022-12-24T00:21:27;96711.81;;;11.01;75.30
32251;BME280;41295;48.518;9.206;2022-12-24T00:23:30;96710.41;;;10.94;75.56
32251;BME280;41295;48.518;9.206;2022-12-24T00:25:33;96720.56;;;11.00;75.44
32251;BME280;41295;48.518;9.206;2022-12-24T00:27:36;96723.03;;;11.03;75.06
32251;BME280;41295;48.518;9.206;2022-12-24T00:29:39;96726.16;;;11.10;74.15
32251;BME280;41295;48.518;9.206;2022-12-24T00:31:41;96731.00;;;11.00;74.63
32251;BME280;41295;48.518;9.206;2022-12-24T00:33:44;96726.56;;;11.20;73.18
32251;BME280;41295;48.518;9.206;2022-12-24T00:35:49;96722.25;;;11.19;73.03
32251;BME280;41295;48.518;9.206;2022-12-24T00:37:52;96736.00;;;11.23;72.52
32251;BME280;41295;48.518;9.206;2022-12-24T00:39:54;96733.91;;;11.12;72.52
32251;BME280;41295;48.518;9.206;2022-12-24T00:41:58;96728.84;;;11.09;72.89
32251;BME280;41295;48.518;9.206;2022-12-24T00:44:03;96733.59;;;11.00;73.26
32251;BME280;41295;48.518;9.206;2022-12-24T00:46:06;96743.88;;;11.03;72.81
32251;BME280;41295;48.518;9.206;2022-12-24T00:48:09;96751.00;;;11.00;73.06
32251;BME280;41295;48.518;9.206;2022-12-24T00:50:12;96749.25;;;11.00;73.12
32251;BME280;41295;48.518;9.206;2022-12-24T00:52:14;96751.25;;;10.95;73.26
32251;BME280;41295;48.518;9.206;2022-12-24T00:54:17;96755.56;;;11.14;71.27
32251;BME280;41295;48.518;9.206;2022-12-24T00:56:20;96756.97;;;11.21;70.83
32251;BME280;41295;48.518;9.206;2022-12-24T00:58:24;96745.38;;;11.09;71.35
32251;BME280;41295;48.518;9.206;2022-12-24T01:00:27;96752.69;;;11.01;71.56
32251;BME280;41295;48.518;9.206;2022-12-24T01:02:29;96755.53;;;10.96;72.26
32251;BME280;41295;48.518;9.206;2022-12-24T01:04:32;96752.31;;;10.91;72.21
32251;BME280;41295;48.518;9.206;2022-12-24T01:06:52;96758.72;;;10.83;72.39
32251;BME280;41295;48.518;9.206;2022-12-24T01:08:56;96760.41;;;10.85;72.37
32251;BME280;41295;48.518;9.206;2022-12-24T01:10:58;96766.78;;;10.79;72.78
32251;BME280;41295;48.518;9.206;2022-12-24T01:13:01;96769.22;;;10.82;72.51
32251;BME280;41295;48.518;9.206;2022-12-24T01:15:06;96779.66;;;10.82;72.75
32251;BME280;41295;48.518;9.206;2022-12-24T01:17:09;96777.19;;;10.79;72.44
32251;BME280;41295;48.518;9.206;2022-12-24T01:19:12;96784.31;;;10.94;71.72
32251;BME280;41295;48.518;9.206;2022-12-24T01:21:14;96791.78;;;10.83;72.03
32251;BME280;41295;48.518;9.206;2022-12-24T01:23:17;96792.84;;;10.79;71.96
32251;BME280;41295;48.518;9.206;2022-12-24T01:25:19;96789.53;;;10.75;72.11
32251;BME280;41295;48.518;9.206;2022-12-24T01:27:22;96793.13;;;10.73;72.29
32251;BME280;41295;48.518;9.206;2022-12-24T01:29:25;96796.16;;;10.82;71.11
32251;BME280;41295;48.518;9.206;2022-12-24T01:31:29;96799.97;;;10.75;71.66
32251;BME280;41295;48.518;9.206;2022-12-24T01:33:31;96811.09;;;10.79;71.25
32251;BME280;41295;48.518;9.206;2022-12-24T01:35:34;96807.88;;;10.74;71.37
32251;BME280;41295;48.518;9.206;2022-12-24T01:37:36;96817.44;;;10.73;71.20
32251;BME280;41295;48.518;9.206;2022-12-24T01:39:39;96822.38;;;10.79;70.94
32251;BME280;41295;48.518;9.206;2022-12-24T01:41:42;96818.63;;;10.85;70.39
32251;BME280;41295;48.518;9.206;2022-12-24T01:44:19;96809.69;;;10.91;69.81
32251;BME280;41295;48.518;9.206;2022-12-24T01:46:24;96805.66;;;11.03;69.10
32251;BME280;41295;48.518;9.206;2022-12-24T01:48:37;96802.78;;;10.90;69.60
32251;BME280;41295;48.518;9.206;2022-12-24T01:50:40;96809.31;;;10.79;69.90
32251;BME280;41295;48.518;9.206;2022-12-24T01:52:43;96806.88;;;10.76;70.27
32251;BME280;41295;48.518;9.206;2022-12-24T01:54:49;96825.41;;;10.89;69.47
32251;BME280;41295;48.518;9.206;2022-12-24T01:56:58;96813.34;;;10.87;69.28
32251;BME280;41295;48.518;9.206;2022-12-24T01:59:05;96820.19;;;10.89;68.81
32251;BME280;41295;48.518;9.206;2022-12-24T02:01:08;96823.06;;;10.83;68.95
32251;BME280;41295;48.518;9.206;2022-12-24T02:03:11;96822.03;;;10.87;69.08
32251;BME280;41295;48.518;9.206;2022-12-24T02:05:18;96826.91;;;10.95;68.47
32251;BME280;41295;48.518;9.206;2022-12-24T02:07:22;96833.38;;;11.05;68.30
32251;BME280;41295;48.518;9.206;2022-12-24T02:09:26;96831.03;;;10.99;68.21
32251;BME280;41295;48.518;9.206;2022-12-24T02:11:29;96843.09;;;11.02;68.32
32251;BME280;41295;48.518;9.206;2022-12-24T02:13:32;96853.25;;;11.08;67.62
32251;BME280;41295;48.518;9.206;2022-12-24T02:15:43;96861.13;;;11.06;67.98
32251;BME280;41295;48.518;9.206;2022-12-24T02:17:54;96852.47;;;11.25;67.32
32251;BME280;41295;48.518;9.206;2022-12-24T02:20:18;96845.78;;;11.00;68.42
32251;BME280;41295;48.518;9.206;2022-12-24T02:22:38;96850.41;;;10.93;68.96
32251;BME280;41295;48.518;9.206;2022-12-24T02:25:09;96849.53;;;10.94;68.83
32251;BME280;41295;48.518;9.206;2022-12-24T02:27:22;96853.66;;;10.79;69.17
32251;BME280;41295;48.518;9.206;2022-12-24T02:32:15;96879.00;;;10.77;69.35
32251;BME280;41295;48.518;9.206;2022-12-24T02:34:27;96880.03;;;10.73;69.54
32251;BME280;41295;48.518;9.206;2022-12-24T02:36:34;96883.53;;;10.72;69.79
32251;BME280;41295;48.518;9.206;2022-12-24T02:38:42;96883.13;;;10.81;69.21
32251;BME280;41295;48.518;9.206;2022-12-24T02:40:51;96877.06;;;10.81;69.58
32251;BME280;41295;48.518;9.206;2022-12-24T02:42:58;96876.50;;;10.74;69.71
32251;BME280;41295;48.518;9.206;2022-12-24T02:45:06;96871.16;;;10.77;69.43
32251;BME280;41295;48.518;9.206;2022-12-24T02:47:11;96868.75;;;10.92;68.79
32251;BME280;41295;48.518;9.206;2022-12-24T02:49:14;96882.72;;;10.91;69.08
32251;BME280;41295;48.518;9.206;2022-12-24T02:51:21;96893.41;;;10.85;69.36
32251;BME280;41295;48.518;9.206;2022-12-24T02:53:24;96891.97;;;10.98;69.33
32251;BME280;41295;48.518;9.206;2022-12-24T02:55:34;96896.41;;;10.96;68.90
32251;BME280;41295;48.518;9.206;2022-12-24T02:57:53;96903.50;;;10.92;69.26
32251;BME280;41295;48.518;9.206;2022-12-24T03:00:05;96894.41;;;10.82;69.74
32251;BME280;41295;48.518;9.206;2022-12-24T03:02:20;96887.38;;;10.84;69.96
32251;BME280;41295;48.518;9.206;2022-12-24T03:04:30;96894.97;;;10.69;70.24
32251;BME280;41295;48.518;9.206;2022-12-24T03:06:44;96901.09;;;10.68;70.22
32251;BME280;41295;48.518;9.206;2022-12-24T03:08:53;96907.06;;;10.91;69.56
32251;BME280;41295;48.518;9.206;2022-12-24T03:11:01;96910.91;;;10.82;69.65
32251;BME280;41295;48.518;9.206;2022-12-24T03:13:10;96900.75;;;10.95;68.95
32251;BME280;41295;48.518;9.206;2022-12-24T03:15:18;96907.06;;;10.91;69.00
32251;BME280;41295;48.518;9.206;2022-12-24T03:17:21;96922.41;;;10.98;68.84
32251;BME280;41295;48.518;9.206;2022-12-24T03:19:25;96917.59;;;10.88;69.10
32251;BME280;41295;48.518;9.206;2022-12-24T03:21:30;96920.34;;;10.85;69.38
32251;BME280;41295;48.518;9.206;2022-12-24T03:23:34;96926.34;;;10.87;69.12
32251;BME280;41295;48.518;9.206;2022-12-24T03:25:39;96920.56;;;10.80;69.61
32251;BME280;41295;48.518;9.206;2022-12-24T03:27:45;96922.66;;;10.72;69.95
32251;BME280;41295;48.518;9.206;2022-12-24T03:29:48;96943.69;;;10.88;69.24
32251;BME280;41295;48.518;9.206;2022-12-24T03:31:58;96954.81;;;10.92;68.75
32251;BME280;41295;48.518;9.206;2022-12-24T03:34:02;96950.25;;;10.97;68.23
32251;BME280;41295;48.518;9.206;2022-12-24T03:36:05;96951.03;;;10.99;68.00
32251;BME280;41295;48.518;9.206;2022-12-24T03:38:08;96956.41;;;10.96;68.50
32251;BME280;41295;48.518;9.206;2022-12-24T03:40:11;96946.75;;;10.98;68.20
32251;BME280;41295;48.518;9.206;2022-12-24T03:42:14;96942.94;;;10.86;68.89
32251;BME280;41295;48.518;9.206;2022-12-24T03:44:17;96942.84;;;10.88;69.18
32251;BME280;41295;48.518;9.206;2022-12-24T03:46:19;96936.00;;;10.85;69.19
32251;BME280;41295;48.518;9.206;2022-12-24T03:48:24;96957.91;;;10.81;69.62
32251;BME280;41295;48.518;9.206;2022-12-24T03:50:33;96970.31;;;10.76;69.53
32251;BME280;41295;48.518;9.206;2022-12-24T03:52:36;96965.28;;;10.71;69.56
32251;BME280;41295;48.518;9.206;2022-12-24T03:54:38;96957.72;;;10.86;69.10
32251;BME280;41295;48.518;9.206;2022-12-24T03:56:41;96952.50;;;10.86;69.08
32251;BME280;41295;48.518;9.206;2022-12-24T03:58:44;96956.00;;;10.85;69.04
32251;BME280;41295;48.518;9.206;2022-12-24T04:00:46;96962.09;;;10.85;68.87
32251;BME280;41295;48.518;9.206;2022-12-24T04:02:49;96959.16;;;10.72;69.26
32251;BME280;41295;48.518;9.206;2022-12-24T04:04:53;96959.69;;;10.80;68.92
32251;BME280;41295;48.518;9.206;2022-12-24T04:06:55;96961.22;;;10.85;68.69
32251;BME280;41295;48.518;9.206;2022-12-24T04:08:58;96958.91;;;10.78;68.75
32251;BME280;41295;48.518;9.206;2022-12-24T04:11:06;96950.50;;;10.72;69.41
32251;BME280;41295;48.518;9.206;2022-12-24T04:13:10;96938.91;;;10.79;69.06
32251;BME280;41295;48.518;9.206;2022-12-24T04:15:13;96953.03;;;10.73;69.23
32251;BME280;41295;48.518;9.206;2022-12-24T04:17:15;96960.22;;;10.68;69.61
32251;BME280;41295;48.518;9.206;2022-12-24T04:19:18;96950.28;;;10.76;69.18
32251;BME280;41295;48.518;9.206;2022-12-24T04:21:22;96946.13;;;10.72;69.52
32251;BME280;41295;48.518;9.206;2022-12-24T04:23:25;96947.03;;;10.71;69.36
32251;BME280;41295;48.518;9.206;2022-12-24T04:25:28;96947.03;;;10.71;69.75
32251;BME280;41295;48.518;9.206;2022-12-24T04:27:30;96954.16;;;10.67;69.53
32251;BME280;41295;48.518;9.206;2022-12-24T04:29:33;96977.53;;;10.69;69.69
32251;BME280;41295;48.518;9.206;2022-12-24T04:31:35;96975.72;;;10.71;69.39
32251;BME280;41295;48.518;9.206;2022-12-24T04:33:38;96964.44;;;10.70;69.40
32251;BME280;41295;48.518;9.206;2022-12-24T04:35:41;96956.53;;;10.72;69.68
32251;BME280;41295;48.518;9.206;2022-12-24T04:37:45;96948.03;;;10.68;69.95
32251;BME280;41295;48.518;9.206;2022-12-24T04:39:48;96957.72;;;10.86;68.72
32251;BME280;41295;48.518;9.206;2022-12-24T04:41:50;96966.72;;;10.78;68.97
32251;BME280;41295;48.518;9.206;2022-12-24T04:43:53;96962.63;;;10.73;69.13
32251;BME280;41295;48.518;9.206;2022-12-24T04:46:03;96970.84;;;10.84;69.11
32251;BME280;41295;48.518;9.206;2022-12-24T04:48:06;96973.69;;;10.78;68.81
32251;BME280;41295;48.518;9.206;2022-12-24T04:50:09;96977.16;;;10.78;68.64
32251;BME280;41295;48.518;9.206;2022-12-24T04:52:12;96989.81;;;10.67;69.43
32251;BME280;41295;48.518;9.206;2022-12-24T04:54:16;96985.50;;;10.66;69.55
32251;BME280;41295;48.518;9.206;2022-12-24T04:56:21;96976.91;;;10.64;69.83
32251;BME280;41295;48.518;9.206;2022-12-24T04:58:24;96976.97;;;10.62;69.90
32251;BME280;41295;48.518;9.206;2022-12-24T05:00:26;96976.19;;;10.60;69.62
32251;BME280;41295;48.518;9.206;2022-12-24T05:02:29;96985.66;;;10.63;69.48
32251;BME280;41295;48.518;9.206;2022-12-24T05:04:32;96992.69;;;10.61;69.19
32251;BME280;41295;48.518;9.206;2022-12-24T05:06:34;96996.16;;;10.61;68.93
32251;BME280;41295;48.518;9.206;2022-12-24T05:08:37;96996.88;;;10.65;68.97
32251;BME280;41295;48.518;9.206;2022-12-24T05:10:42;97007.16;;;10.68;68.48
32251;BME280;41295;48.518;9.206;2022-12-24T05:12:44;97003.25;;;10.78;67.99
32251;BME280;41295;48.518;9.206;2022-12-24T05:14:47;97007.28;;;10.65;68.33
32251;BME280;41295;48.518;9.206;2022-12-24T05:16:49;97011.06;;;10.78;67.97
32251;BME280;41295;48.518;9.206;2022-12-24T05:18:54;96998.41;;;10.69;68.12
32251;BME280;41295;48.518;9.206;2022-12-24T05:20:56;97005.19;;;10.73;68.16
32251;BME280;41295;48.518;9.206;2022-12-24T05:22:59;97008.78;;;10.70;68.39
32251;BME280;41295;48.518;9.206;2022-12-24T05:25:19;97002.66;;;10.72;68.16
32251;BME280;41295;48.518;9.206;2022-12-24T05:27:41;97024.25;;;10.75;68.56
32251;BME280;41295;48.518;9.206;2022-12-24T05:29:51;97036.56;;;10.72;68.17
32251;BME280;41295;48.518;9.206;2022-12-24T05:31:53;97027.75;;;10.74;68.17
32251;BME280;41295;48.518;9.206;2022-12-24T05:33:56;97015.56;;;10.75;68.91
32251;BME280;41295;48.518;9.206;2022-12-24T05:35:59;97020.50;;;10.81;68.88
32251;BME280;41295;48.518;9.206;2022-12-24T05:38:01;97021.34;;;10.81;68.86
32251;BME280;41295;48.518;9.206;2022-12-24T05:40:05;97011.47;;;10.90;68.58
32251;BME280;41295;48.518;9.206;2022-12-24T05:42:08;97008.53;;;10.77;69.13
32251;BME280;41295;48.518;9.206;2022-12-24T05:44:12;96995.81;;;10.69;69.95
32251;BME280;41295;48.518;9.206;2022-12-24T05:46:19;97006.44;;;10.64;70.02
32251;BME280;41295;48.518;9.206;2022-12-24T05:48:21;97009.94;;;10.63;70.46
32251;BME280;41295;48.518;9.206;2022-12-24T05:50:23;97008.47;;;10.57;70.56
32251;BME280;41295;48.518;9.206;2022-12-24T05:52:26;97009.56;;;10.73;70.19
32251;BME280;41295;48.518;9.206;2022-12-24T05:54:29;97018.31;;;10.72;70.21
32251;BME280;41295;48.518;9.206;2022-12-24T05:56:31;97014.53;;;10.79;69.66
32251;BME280;41295;48.518;9.206;2022-12-24T05:58:34;97013.16;;;10.70;70.15
32251;BME280;41295;48.518;9.206;2022-12-24T06:00:39;97004.16;;;10.77;70.04
32251;BME280;41295;48.518;9.206;2022-12-24T06:02:41;97006.31;;;10.67;70.08
32251;BME280;41295;48.518;9.206;2022-12-24T06:04:44;97013.22;;;10.68;70.00
32251;BME280;41295;48.518;9.206;2022-12-24T06:06:46;97013.66;;;10.78;69.65
32251;BME280;41295;48.518;9.206;2022-12-24T06:08:50;97021.63;;;10.75;69.67
32251;BME280;41295;48.518;9.206;2022-12-24T06:10:55;97024.19;;;10.77;69.22
32251;BME280;41295;48.518;9.206;2022-12-24T06:12:58;97026.72;;;10.78;69.58
32251;BME280;41295;48.518;9.206;2022-12-24T06:15:00;97025.06;;;10.76;69.46
32251;BME280;41295;48.518;9.206;2022-12-24T06:17:04;97011.06;;;10.78;69.15
32251;BME280;41295;48.518;9.206;2022-12-24T06:19:07;97024.34;;;10.72;69.43
32251;BME280;41295;48.518;9.206;2022-12-24T06:21:10;97024.56;;;10.67;69.59
32251;BME280;41295;48.518;9.206;2022-12-24T06:23:13;97013.22;;;10.68;69.57
32251;BME280;41295;48.518;9.206;2022-12-24T06:25:16;97004.47;;;10.69;69.48
32251;BME280;41295;48.518;9.206;2022-12-24T06:27:19;97001.94;;;10.68;69.25
32251;BME280;41295;48.518;9.206;2022-12-24T06:29:22;97001.41;;;10.59;69.80
32251;BME280;41295;48.518;9.206;2022-12-24T06:31:27;97006.50;;;10.63;69.33
32251;BME280;41295;48.518;9.206;2022-12-24T06:33:33;97011.81;;;10.59;69.51
32251;BME280;41295;48.518;9.206;2022-12-24T06:35:35;97015.84;;;10.46;69.84
32251;BME280;41295;48.518;9.206;2022-12-24T06:37:38;97013.81;;;10.75;67.92
32251;BME280;41295;48.518;9.206;2022-12-24T06:39:40;97018.91;;;10.57;68.59
32251;BME280;41295;48.518;9.206;2022-12-24T06:41:43;97025.78;;;10.58;68.38
32251;BME280;41295;48.518;9.206;2022-12-24T06:43:48;97026.66;;;10.59;68.73
32251;BME280;41295;48.518;9.206;2022-12-24T06:45:51;97042.44;;;10.56;67.78
32251;BME280;41295;48.518;9.206;2022-12-24T06:47:54;97026.16;;;10.49;68.39
32251;BME280;41295;48.518;9.206;2022-12-24T06:49:58;97034.91;;;10.69;67.63
32251;BME280;41295;48.518;9.206;2022-12-24T06:52:00;97044.75;;;10.62;67.45
32251;BME280;41295;48.518;9.206;2022-12-24T06:54:03;97039.31;;;10.46;68.28
32251;BME280;41295;48.518;9.206;2022-12-24T06:56:08;97052.50;;;10.64;67.58
32251;BME280;41295;48.518;9.206;2022-12-24T06:58:11;97057.16;;;10.57;67.80
32251;BME280;41295;48.518;9.206;2022-12-24T07:00:14;97070.25;;;10.55;67.69
32251;BME280;41295;48.518;9.206;2022-12-24T07:02:17;97065.81;;;10.57;67.58
32251;BME280;41295;48.518;9.206;2022-12-24T07:04:19;97066.13;;;10.50;68.28
32251;BME280;41295;48.518;9.206;2022-12-24T07:06:25;97070.41;;;10.51;67.71
32251;BME280;41295;48.518;9.206;2022-12-24T07:08:29;97084.00;;;10.59;67.72
32251;BME280;41295;48.518;9.206;2022-12-24T07:10:34;97083.56;;;10.70;67.47
32251;BME280;41295;48.518;9.206;2022-12-24T07:12:36;97077.34;;;10.52;67.80
32251;BME280;41295;48.518;9.206;2022-12-24T07:14:39;97081.13;;;10.43;68.32
32251;BME280;41295;48.518;9.206;2022-12-24T07:16:42;97086.19;;;10.48;68.37
32251;BME280;41295;48.518;9.206;2022-12-24T07:18:45;97077.47;;;10.47;68.44
32251;BME280;41295;48.518;9.206;2022-12-24T07:20:48;97084.53;;;10.45;68.59
32251;BME280;41295;48.518;9.206;2022-12-24T07:22:52;97087.44;;;10.37;69.00
32251;BME280;41295;48.518;9.206;2022-12-24T07:24:54;97089.91;;;10.40;68.44
32251;BME280;41295;48.518;9.206;2022-12-24T07:26:57;97100.41;;;10.39;68.33
32251;BME280;41295;48.518;9.206;2022-12-24T07:29:00;97104.00;;;10.36;68.32
32251;BME280;41295;48.518;9.206;2022-12-24T07:31:02;97112.66;;;10.37;68.51
32251;BME280;41295;48.518;9.206;2022-12-24T07:33:05;97111.31;;;10.50;67.69
32251;BME280;41295;48.518;9.206;2022-12-24T07:35:09;97113.97;;;10.47;67.64
32251;BME280;41295;48.518;9.206;2022-12-24T07:37:11;97126.88;;;10.52;67.27
32251;BME280;41295;48.518;9.206;2022-12-24T07:39:15;97115.66;;;10.50;67.32
32251;BME280;41295;48.518;9.206;2022-12-24T07:41:18;97111.44;;;10.45;67.09
32251;BME280;41295;48.518;9.206;2022-12-24T07:43:20;97112.72;;;10.35;67.28
32251;BME280;41295;48.518;9.206;2022-12-24T07:45:23;97107.34;;;10.40;67.32
32251;BME280;41295;48.518;9.206;2022-12-24T07:47:26;97118.72;;;10.37;67.72
32251;BME280;41295;48.518;9.206;2022-12-24T07:49:28;97126.72;;;10.32;67.39
32251;BME280;41295;48.518;9.206;2022-12-24T07:51:34;97121.44;;;10.34;67.24
32251;BME280;41295;48.518;9.206;2022-12-24T07:53:36;97120.72;;;10.30;67.89
32251;BME280;41295;48.518;9.206;2022-12-24T07:55:40;97136.91;;;10.39;67.82
32251;BME280;41295;48.518;9.206;2022-12-24T07:57:43;97136.28;;;10.32;67.59
32251;BME280;41295;48.518;9.206;2022-12-24T07:59:46;97149.25;;;10.33;67.64
32251;BME280;41295;48.518;9.206;2022-12-24T08:01:48;97150.91;;;10.36;67.56
32251;BME280;41295;48.518;9.206;2022-12-24T08:03:51;97149.25;;;10.33;67.63
32251;BME280;41295;48.518;9.206;2022-12-24T08:05:55;97157.34;;;10.27;67.60
32251;BME280;41295;48.518;9.206;2022-12-24T08:07:58;97155.63;;;10.26;67.51
32251;BME280;41295;48.518;9.206;2022-12-24T08:10:01;97162.81;;;10.19;68.37
32251;BME280;41295;48.518;9.206;2022-12-24T08:12:05;97166.28;;;10.20;68.23
32251;BME280;41295;48.518;9.206;2022-12-24T08:14:08;97167.13;;;10.20;68.13
32251;BME280;41295;48.518;9.206;2022-12-24T08:16:11;97173.91;;;10.25;68.14
32251;BME280;41295;48.518;9.206;2022-12-24T08:18:14;97176.31;;;10.31;67.99
32251;BME280;41295;48.518;9.206;2022-12-24T08:20:16;97175.66;;;10.24;67.91
32251;BME280;41295;48.518;9.206;2022-12-24T08:22:19;97168.78;;;10.23;68.07
32251;BME280;41295;48.518;9.206;2022-12-24T08:24:22;97168.78;;;10.23;68.23
32251;BME280;41295;48.518;9.206;2022-12-24T08:26:24;97167.78;;;10.26;69.07
32251;BME280;41295;48.518;9.206;2022-12-24T08:28:28;97178.91;;;10.31;68.72
32251;BME280;41295;48.518;9.206;2022-12-24T08:30:31;97179.41;;;10.41;67.79
32251;BME280;41295;48.518;9.206;2022-12-24T08:32:34;97171.78;;;10.34;68.15
32251;BME280;41295;48.518;9.206;2022-12-24T08:34:36;97178.59;;;10.39;68.04
32251;BME280;41295;48.518;9.206;2022-12-24T08:36:39;97173.31;;;10.40;67.91
32251;BME280;41295;48.518;9.206;2022-12-24T08:38:42;97184.56;;;10.42;67.54
32251;BME280;41295;48.518;9.206;2022-12-24T08:40:45;97193.22;;;10.43;67.09
32251;BME280;41295;48.518;9.206;2022-12-24T08:42:50;97192.19;;;10.49;67.24
32251;BME280;41295;48.518;9.206;2022-12-24T08:44:54;97196.28;;;10.54;67.02
32251;BME280;41295;48.518;9.206;2022-12-24T08:46:56;97193.94;;;10.48;67.40
32251;BME280;41295;48.518;9.206;2022-12-24T08:48:59;97187.63;;;10.54;67.48
32251;BME280;41295;48.518;9.206;2022-12-24T08:51:05;97192.84;;;10.54;66.82
32251;BME280;41295;48.518;9.206;2022-12-24T08:53:08;97194.41;;;10.58;66.81
32251;BME280;41295;48.518;9.206;2022-12-24T08:55:11;97199.53;;;10.61;66.50
32251;BME280;41295;48.518;9.206;2022-12-24T08:57:14;97193.91;;;10.70;66.28
32251;BME280;41295;48.518;9.206;2022-12-24T08:59:16;97190.22;;;10.76;66.64
32251;BME280;41295;48.518;9.206;2022-12-24T09:01:20;97190.22;;;10.76;66.47
32251;BME280;41295;48.518;9.206;2022-12-24T09:03:24;97193.09;;;10.70;66.12
32251;BME280;41295;48.518;9.206;2022-12-24T09:05:28;97184.66;;;10.86;65.84
32251;BME280;41295;48.518;9.206;2022-12-24T09:07:31;97194.28;;;10.83;65.43
32251;BME280;41295;48.518;9.206;2022-12-24T09:09:33;97186.34;;;10.87;65.77
32251;BME280;41295;48.518;9.206;2022-12-24T09:11:38;97184.63;;;11.08;65.03
32251;BME280;41295;48.518;9.206;2022-12-24T09:13:41;97191.47;;;10.90;65.30
32251;BME280;41295;48.518;9.206;2022-12-24T09:15:52;97182.56;;;10.94;65.48
32251;BME280;41295;48.518;9.206;2022-12-24T09:17:56;97187.84;;;10.92;65.88
32251;BME280;41295;48.518;9.206;2022-12-24T09:19:58;97192.28;;;10.90;66.05
32251;BME280;41295;48.518;9.206;2022-12-24T09:22:01;97198.88;;;10.99;65.78
32251;BME280;41295;48.518;9.206;2022-12-24T09:24:04;97202.94;;;11.06;64.69
32251;BME280;41295;48.518;9.206;2022-12-24T09:26:08;97205.38;;;11.11;64.13
32251;BME280;41295;48.518;9.206;2022-12-24T09:28:11;97207.69;;;10.97;64.87
32251;BME280;41295;48.518;9.206;2022-12-24T09:30:14;97209.16;;;11.04;64.59
32251;BME280;41295;48.518;9.206;2022-12-24T09:32:17;97204.03;;;11.01;64.68
32251;BME280;41295;48.518;9.206;2022-12-24T09:34:21;97208.28;;;11.03;65.01
32251;BME280;41295;48.518;9.206;2022-12-24T09:36:30;97207.38;;;11.04;64.30
32251;BME280;41295;48.518;9.206;2022-12-24T09:38:34;97209.22;;;11.02;64.42
32251;BME280;41295;48.518;9.206;2022-12-24T09:40:38;97213.97;;;11.13;64.49
32251;BME280;41295;48.518;9.206;2022-12-24T09:42:47;97213.50;;;11.03;64.68
32251;BME280;41295;48.518;9.206;2022-12-24T09:44:54;97216.31;;;10.99;64.47
32251;BME280;41295;48.518;9.206;2022-12-24T09:47:02;97213.25;;;11.10;64.02
32251;BME280;41295;48.518;9.206;2022-12-24T09:49:15;97215.69;;;11.14;64.17
32251;BME280;41295;48.518;9.206;2022-12-24T09:51:25;97222.06;;;11.07;64.46
32251;BME280;41295;48.518;9.206;2022-12-24T09:53:35;97212.28;;;11.12;64.33
32251;BME280;41295;48.518;9.206;2022-12-24T09:55:43;97202.66;;;11.14;64.16
32251;BME280;41295;48.518;9.206;2022-12-24T09:57:49;97202.66;;;11.14;64.38
32251;BME280;41295;48.518;9.206;2022-12-24T09:59:54;97208.00;;;11.11;64.48
32251;BME280;41295;48.518;9.206;2022-12-24T10:01:59;97204.66;;;11.07;64.62
32251;BME280;41295;48.518;9.206;2022-12-24T10:04:04;97205.41;;;11.10;64.59
32251;BME280;41295;48.518;9.206;2022-12-24T10:06:13;97211.75;;;11.04;64.60
32251;BME280;41295;48.518;9.206;2022-12-24T10:08:24;97207.22;;;11.09;64.29
32251;BME280;41295;48.518;9.206;2022-12-24T10:10:34;97213.53;;;11.24;64.14
32251;BME280;41295;48.518;9.206;2022-12-24T10:12:42;97214.53;;;11.22;63.84
32251;BME280;41295;48.518;9.206;2022-12-24T10:14:58;97219.03;;;11.18;64.10
32251;BME280;41295;48.518;9.206;2022-12-24T10:17:16;97215.31;;;11.24;64.41
32251;BME280;41295;48.518;9.206;2022-12-24T10:19:35;97222.50;;;11.39;63.75
32251;BME280;41295;48.518;9.206;2022-12-24T10:21:47;97229.16;;;11.67;62.97
32251;BME280;41295;48.518;9.206;2022-12-24T10:23:59;97224.16;;;11.63;62.41
32251;BME280;41295;48.518;9.206;2022-12-24T10:26:12;97238.38;;;11.76;62.85
32251;BME280;41295;48.518;9.206;2022-12-24T10:28:18;97239.72;;;11.85;61.85
32251;BME280;41295;48.518;9.206;2022-12-24T10:30:22;97236.16;;;11.88;61.37
32251;BME280;41295;48.518;9.206;2022-12-24T10:32:27;97231.81;;;11.87;61.45
32251;BME280;41295;48.518;9.206;2022-12-24T10:34:37;97245.28;;;11.77;62.21
32251;BME280;41295;48.518;9.206;2022-12-24T10:36:41;97242.09;;;11.71;62.54
32251;BME280;41295;48.518;9.206;2022-12-24T10:38:45;97255.25;;;11.88;61.96
32251;BME280;41295;48.518;9.206;2022-12-24T10:40:50;97251.34;;;11.78;62.48
32251;BME280;41295;48.518;9.206;2022-12-24T10:42:54;97255.41;;;11.85;63.00
32251;BME280;41295;48.518;9.206;2022-12-24T10:45:02;97245.28;;;11.77;62.68
32251;BME280;41295;48.518;9.206;2022-12-24T10:47:07;97228.50;;;11.83;61.88
32251;BME280;41295;48.518;9.206;2022-12-24T10:49:12;97226.44;;;11.90;61.88
32251;BME280;41295;48.518;9.206;2022-12-24T10:51:20;97221.66;;;11.81;61.85
32251;BME280;41295;48.518;9.206;2022-12-24T10:53:30;97225.31;;;11.76;62.53
32251;BME280;41295;48.518;9.206;2022-12-24T10:55:35;97234.03;;;11.96;61.24
32251;BME280;41295;48.518;9.206;2022-12-24T10:57:39;97223.66;;;11.95;61.24
32251;BME280;41295;48.518;9.206;2022-12-24T10:59:48;97231.56;;;11.93;62.22
32251;BME280;41295;48.518;9.206;2022-12-24T11:01:52;97228.31;;;11.88;62.14
32251;BME280;41295;48.518;9.206;2022-12-24T11:03:59;97231.97;;;11.84;62.50